Aérodrome :
LOGIN :

S'inscrire | Disclaimer

   EN    FR    IT 

 










Légende :    VFR   VFR Marginal   IFR   IFR Intensif   IFR Très Intensif
Visi : 
Plafond : 
>= 8 km
>= 3000ft
5 à 8 km
1000 à 3000 ft
1500m à 5 km
500 à 1000 ft
800 à 1500m
200 à 500 ft
< 800m
< 200 ft
Symboles :   Orages  Brouillard  Fortes neiges  Fortes précipitations  Vent > 20 kt
SIGMETs :   Divers  Orages  Givrage  Turbulence  Onde Orograph.  Cendres Volcan.






- Altitude de l'aérodrome : 24 ft
- Code IATA : IBZ


LEIB - Ibiza

DERNIER METAR :
  • 291430Z 10006KT CAVOK 22/15 Q1015 NOSIG

METARs EXPIRÉS :
  • 291400Z 09006KT 030V160 CAVOK 22/15 Q1016 NOSIG
  • 291330Z 09007KT 020V160 9999 FEW012 22/14 Q1016 NOSIG
  • 291300Z 10007KT 020V140 9999 FEW012 23/15 Q1016 NOSIG
  • 291230Z 10007KT 060V160 CAVOK 23/16 Q1016 NOSIG
  • 291200Z 11009KT 070V150 CAVOK 23/15 Q1017 NOSIG

TAF TAF LEIB
Valide du 29 à 15h jusqu'au 30 à 15h UTC


291400Z 2915/3015 10009KT 9999 FEW012 TX24/3012Z TN16/3006Z
BECMG 3000/3002 03006KT
BECMG 3008/3010 10012KT



MET'MAP, la Météo Aéronautique d'un coup d'oeil ! - Copyright ORBIFLY Décembre 2007 - Disclaimer

ORBIFLY MET'MAP TEAM :

Programmation & Développement : Alexandra Zaïnal
Sur une idée originale de : Baudouin d'Aumeries
Assistance à la programmation : Marc-Olivier Méhu
Soutien technique & logistique : Manuel Goepfert

Contact : metmap@orbifly.com




SOURCES & CREDITS :

   NOAA